Time;durP1;ratioP1;P1;durP2;ratioP2;P2;SDS_P1;SDS_P2;PMS_P1;PMS_P2;Temp;Humidity;BMP_temperature;BMP_pressure;BME280_temperature;BME280_humidity;BME280_pressure;Samples;Min_cycle;Max_cycle;Signal;HPM_P1;HPM_P2
2023/08/10 00:02:12;;;;;;;13.45;12.95;;;17.00;99.90;;;;;;5052821;28;20287;-67
2023/08/10 00:04:39;;;;;;;12.83;12.43;;;16.90;99.90;;;;;;5052528;28;20204;-66
2023/08/10 00:07:06;;;;;;;12.70;12.18;;;16.90;99.90;;;;;;5052154;28;20756;-67
2023/08/10 00:09:33;;;;;;;12.35;11.95;;;16.80;99.90;;;;;;5050961;28;20318;-67
2023/08/10 00:12:01;;;;;;;13.30;12.80;;;16.80;99.90;;;;;;5051461;28;20230;-67
2023/08/10 00:14:28;;;;;;;13.48;12.98;;;16.80;99.90;;;;;;5051288;28;20203;-66
2023/08/10 00:16:55;;;;;;;11.98;11.57;;;16.80;99.90;;;;;;5051166;28;20649;-67
2023/08/10 00:19:22;;;;;;;12.70;12.20;;;16.70;99.90;;;;;;5050363;28;20255;-67
2023/08/10 00:21:48;;;;;;;13.18;12.63;;;16.60;99.90;;;;;;5051222;28;20200;-66
2023/08/10 00:24:15;;;;;;;12.18;11.77;;;16.60;99.90;;;;;;5051158;28;20204;-66
2023/08/10 00:26:42;;;;;;;11.52;11.13;;;16.60;99.90;;;;;;5051033;28;20204;-67
2023/08/10 00:29:10;;;;;;;11.82;11.43;;;16.50;99.90;;;;;;5049916;28;20256;-66
2023/08/10 00:31:37;;;;;;;12.38;11.98;;;16.60;99.90;;;;;;5050921;28;20196;-66
2023/08/10 00:34:04;;;;;;;12.25;11.85;;;16.50;99.90;;;;;;5050723;28;20227;-66
2023/08/10 00:36:31;;;;;;;11.70;11.30;;;16.40;99.90;;;;;;5050709;28;20235;-66
2023/08/10 00:38:58;;;;;;;11.93;11.48;;;16.40;99.90;;;;;;5050706;28;20729;-66
2023/08/10 00:41:24;;;;;;;12.30;11.90;;;16.30;99.90;;;;;;5054995;28;20213;-66
2023/08/10 00:43:51;;;;;;;12.32;11.93;;;16.30;99.90;;;;;;5050584;28;20210;-66
2023/08/10 00:46:19;;;;;;;12.20;11.70;;;16.40;99.90;;;;;;5050898;28;20658;-67
2023/08/10 00:48:46;;;;;;;11.97;11.57;;;16.50;99.90;;;;;;5051046;28;20250;-68
2023/08/10 00:51:13;;;;;;;13.85;13.35;;;16.40;99.90;;;;;;5051620;28;20204;-65
2023/08/10 00:53:41;;;;;;;12.47;12.07;;;16.40;99.90;;;;;;5051691;28;20315;-66
2023/08/10 00:56:11;;;;;;;11.63;11.20;;;16.30;99.90;;;;;;5051499;28;20286;-65
2023/08/10 00:58:38;;;;;;;12.23;11.83;;;16.20;99.90;;;;;;5050739;28;20259;-66
2023/08/10 01:01:05;;;;;;;12.27;11.87;;;16.20;99.90;;;;;;5049929;28;20297;-67
2023/08/10 01:03:33;;;;;;;12.32;11.93;;;16.20;99.90;;;;;;5050621;28;20670;-67
2023/08/10 01:06:08;;;;;;;12.87;12.37;;;16.20;99.90;;;;;;5050681;28;20203;-67
2023/08/10 01:08:44;;;;;;;13.20;12.80;;;16.20;99.90;;;;;;5050333;28;20315;-68
2023/08/10 01:11:21;;;;;;;13.25;12.85;;;16.20;99.90;;;;;;5050976;28;20298;-68
2023/08/10 01:13:53;;;;;;;12.50;12.10;;;16.20;99.90;;;;;;5051396;28;20230;-67
2023/08/10 01:16:22;;;;;;;13.03;12.63;;;16.20;99.90;;;;;;5051808;28;20299;-67
2023/08/10 01:18:51;;;;;;;13.35;12.85;;;16.20;99.90;;;;;;5051563;28;20326;-67
2023/08/10 01:21:30;;;;;;;12.43;12.02;;;16.20;99.90;;;;;;5051325;28;20246;-67
2023/08/10 01:24:04;;;;;;;12.53;12.13;;;16.10;99.90;;;;;;5051951;28;20286;-67
2023/08/10 01:26:33;;;;;;;12.57;12.17;;;16.10;99.90;;;;;;5050909;28;20255;-67
2023/08/10 01:29:00;;;;;;;13.15;12.65;;;16.10;99.90;;;;;;5050411;28;20224;-66
2023/08/10 01:31:28;;;;;;;12.82;12.30;;;16.10;99.90;;;;;;5050446;28;20553;-68
2023/08/10 01:33:55;;;;;;;12.57;12.17;;;16.10;99.90;;;;;;5050639;28;20615;-67
2023/08/10 01:36:22;;;;;;;12.65;12.25;;;16.10;99.90;;;;;;5050333;28;20211;-66
2023/08/10 01:38:48;;;;;;;13.20;12.70;;;16.00;99.90;;;;;;5050430;28;20238;-66
2023/08/10 01:41:15;;;;;;;11.70;11.30;;;16.10;99.90;;;;;;5047937;28;20204;-68
2023/08/10 01:43:43;;;;;;;12.67;12.17;;;16.00;99.90;;;;;;5053917;28;20215;-67
2023/08/10 01:46:15;;;;;;;14.77;14.27;;;15.90;99.90;;;;;;5053682;28;20574;-67
2023/08/10 01:48:44;;;;;;;11.33;10.93;;;16.00;99.90;;;;;;5050809;28;20231;-68
2023/08/10 01:51:14;;;;;;;11.52;11.13;;;15.90;99.90;;;;;;5050498;28;20204;-66
2023/08/10 01:53:41;;;;;;;14.07;13.57;;;15.90;99.90;;;;;;5051426;28;20234;-65
2023/08/10 01:56:08;;;;;;;12.43;11.82;;;15.80;99.90;;;;;;5051727;28;20208;-65
2023/08/10 01:58:35;;;;;;;12.13;11.73;;;15.80;99.90;;;;;;5052691;28;20231;-67
2023/08/10 02:01:03;;;;;;;10.98;10.57;;;15.80;99.90;;;;;;5051216;28;20207;-67
2023/08/10 02:03:30;;;;;;;13.20;12.73;;;15.80;99.90;;;;;;5050992;28;20291;-67
2023/08/10 02:05:57;;;;;;;11.88;11.48;;;15.70;99.90;;;;;;5050825;28;20213;-66
2023/08/10 02:08:24;;;;;;;11.83;11.43;;;15.70;99.90;;;;;;5050260;28;20688;-67
2023/08/10 02:10:51;;;;;;;12.25;11.80;;;15.70;99.90;;;;;;5049973;28;20214;-67
2023/08/10 02:13:18;;;;;;;12.32;11.93;;;15.80;99.90;;;;;;5050629;28;20592;-67
2023/08/10 02:15:45;;;;;;;11.87;11.47;;;15.80;99.90;;;;;;5050554;28;20206;-67
2023/08/10 02:18:13;;;;;;;12.50;12.10;;;15.80;99.90;;;;;;5050796;28;20204;-66
2023/08/10 02:20:40;;;;;;;12.95;12.52;;;15.80;99.90;;;;;;5063871;22;20234;-65
2023/08/10 02:23:07;;;;;;;11.70;11.30;;;15.90;99.90;;;;;;5053745;28;20286;-66
2023/08/10 02:25:34;;;;;;;12.90;12.47;;;15.80;99.90;;;;;;5059864;28;20209;-65
2023/08/10 02:28:00;;;;;;;12.70;12.30;;;15.80;99.90;;;;;;5062129;28;20204;-66
2023/08/10 02:30:27;;;;;;;12.30;11.90;;;15.80;99.90;;;;;;5053519;28;20224;-64
2023/08/10 02:32:54;;;;;;;12.60;12.20;;;15.80;99.90;;;;;;5053462;28;20224;-66
2023/08/10 02:35:22;;;;;;;11.57;11.17;;;15.80;99.90;;;;;;5054725;28;20214;-65
2023/08/10 02:37:50;;;;;;;12.90;12.47;;;15.90;99.90;;;;;;5054549;28;20725;-66
2023/08/10 02:40:17;;;;;;;12.80;12.30;;;15.90;99.90;;;;;;5052578;28;20227;-66
2023/08/10 02:42:44;;;;;;;12.48;12.07;;;15.90;99.90;;;;;;5053157;28;20228;-64
2023/08/10 02:45:12;;;;;;;13.10;12.70;;;15.90;99.90;;;;;;5053722;28;20237;-67
2023/08/10 02:47:39;;;;;;;12.47;12.07;;;15.90;99.90;;;;;;5053473;28;20212;-66
2023/08/10 02:50:07;;;;;;;14.10;13.60;;;15.90;99.90;;;;;;5052709;28;20234;-65
2023/08/10 02:52:35;;;;;;;12.82;12.43;;;15.90;99.90;;;;;;5052748;28;20311;-64
2023/08/10 02:55:03;;;;;;;12.70;12.20;;;15.90;99.90;;;;;;5053178;28;20215;-66
2023/08/10 02:57:30;;;;;;;12.73;12.33;;;15.90;99.90;;;;;;5053310;28;20211;-65
2023/08/10 02:59:57;;;;;;;13.17;12.77;;;15.90;99.90;;;;;;5052462;28;20231;-66
2023/08/10 03:02:24;;;;;;;13.20;12.73;;;15.90;99.90;;;;;;5052850;28;20904;-65
2023/08/10 03:04:51;;;;;;;13.60;13.10;;;15.80;99.90;;;;;;5053673;28;20203;-66
2023/08/10 03:07:18;;;;;;;13.40;12.97;;;15.80;99.90;;;;;;5055995;28;20206;-67
2023/08/10 03:09:46;;;;;;;13.63;13.13;;;15.80;99.90;;;;;;5054110;28;20600;-65
2023/08/10 03:12:13;;;;;;;13.07;12.67;;;15.70;99.90;;;;;;5053615;28;20203;-67
2023/08/10 03:14:40;;;;;;;14.13;13.63;;;15.70;99.90;;;;;;5054753;28;20326;-65
2023/08/10 03:17:07;;;;;;;13.60;13.10;;;15.70;99.90;;;;;;5056636;28;20592;-65
2023/08/10 03:19:34;;;;;;;13.07;12.63;;;15.80;99.90;;;;;;5062166;28;20326;-66
2023/08/10 03:22:00;;;;;;;12.70;12.30;;;15.70;99.90;;;;;;5054707;28;20212;-65
2023/08/10 03:24:27;;;;;;;13.15;12.65;;;15.70;99.90;;;;;;5053362;28;20250;-67
2023/08/10 03:26:55;;;;;;;13.02;12.52;;;15.60;99.90;;;;;;5052334;28;20212;-67
2023/08/10 03:29:22;;;;;;;13.43;13.00;;;16.00;99.90;;;;;;5051447;28;20777;-65
2023/08/10 03:31:49;;;;;;;13.37;12.87;;;15.80;99.90;;;;;;5051742;28;20210;-64
2023/08/10 03:34:16;;;;;;;13.75;13.25;;;15.80;99.90;;;;;;5052139;28;20788;-66
2023/08/10 03:36:42;;;;;;;14.43;13.93;;;15.80;99.90;;;;;;5052603;28;20214;-64
2023/08/10 03:39:09;;;;;;;13.43;12.93;;;15.80;99.90;;;;;;5051235;28;20238;-65
2023/08/10 03:41:36;;;;;;;14.07;13.57;;;15.80;99.90;;;;;;5051933;28;20299;-65
2023/08/10 03:44:05;;;;;;;13.60;13.10;;;15.80;99.90;;;;;;5053379;28;20200;-65
2023/08/10 03:46:31;;;;;;;13.47;12.97;;;15.80;99.90;;;;;;5052972;28;20575;-66
2023/08/10 03:48:58;;;;;;;13.83;13.23;;;15.70;99.90;;;;;;5052943;28;20728;-67
2023/08/10 03:51:26;;;;;;;13.15;12.70;;;15.70;99.90;;;;;;5052416;28;20246;-67
2023/08/10 03:53:52;;;;;;;13.07;12.63;;;15.60;99.90;;;;;;5053116;28;20219;-67
2023/08/10 03:56:19;;;;;;;14.23;13.73;;;15.60;99.90;;;;;;5053323;28;20286;-64
2023/08/10 03:58:46;;;;;;;12.53;12.13;;;15.60;99.90;;;;;;5053685;28;20204;-66
2023/08/10 04:01:14;;;;;;;12.85;12.45;;;15.50;99.90;;;;;;5059082;28;20204;-67
2023/08/10 04:03:41;;;;;;;14.13;13.63;;;15.50;99.90;;;;;;5057395;28;20649;-65
2023/08/10 04:06:08;;;;;;;12.70;12.20;;;15.50;99.90;;;;;;5053753;28;20253;-66
2023/08/10 04:08:35;;;;;;;13.23;12.73;;;15.40;99.90;;;;;;5053510;28;20631;-67
2023/08/10 04:11:02;;;;;;;13.60;13.10;;;15.40;99.90;;;;;;5052921;28;20212;-65
2023/08/10 04:13:28;;;;;;;12.90;12.50;;;15.30;99.90;;;;;;5054484;28;20318;-67
2023/08/10 04:15:56;;;;;;;12.20;11.80;;;15.30;99.90;;;;;;5059328;28;20215;-67
2023/08/10 04:18:24;;;;;;;12.45;12.00;;;15.30;99.90;;;;;;5053815;28;20218;-67
2023/08/10 04:20:51;;;;;;;13.60;13.00;;;15.30;99.90;;;;;;5051822;28;20323;-66
2023/08/10 04:23:19;;;;;;;13.13;12.67;;;15.30;99.90;;;;;;5052281;28;20705;-65
2023/08/10 04:25:45;;;;;;;13.77;13.27;;;15.30;99.90;;;;;;5052516;28;20210;-67
2023/08/10 04:28:12;;;;;;;12.13;11.73;;;15.30;99.90;;;;;;5052188;28;20673;-65
2023/08/10 04:30:39;;;;;;;12.38;11.98;;;15.30;99.90;;;;;;5051378;28;20224;-68
2023/08/10 04:33:06;;;;;;;13.57;13.07;;;15.30;99.90;;;;;;5051607;28;20206;-65
2023/08/10 04:35:34;;;;;;;12.63;12.23;;;15.40;99.90;;;;;;5049744;28;20218;-64
2023/08/10 04:38:01;;;;;;;12.67;12.27;;;15.40;99.90;;;;;;5048882;28;20673;-65
2023/08/10 04:40:29;;;;;;;12.63;12.23;;;15.40;99.90;;;;;;5049178;28;20230;-68
2023/08/10 04:42:56;;;;;;;13.53;13.10;;;15.40;99.90;;;;;;5050957;28;20204;-66
2023/08/10 04:45:22;;;;;;;13.80;13.30;;;15.40;99.90;;;;;;5050757;28;20200;-67
2023/08/10 04:47:49;;;;;;;12.07;11.67;;;15.50;99.90;;;;;;5069490;28;20195;-66
2023/08/10 04:50:16;;;;;;;12.95;12.50;;;15.50;99.90;;;;;;5070149;28;20229;-65
2023/08/10 04:52:44;;;;;;;13.07;12.57;;;15.50;99.90;;;;;;5054756;28;20208;-67
2023/08/10 04:55:12;;;;;;;13.63;13.13;;;15.60;99.90;;;;;;5058687;28;20314;-66
2023/08/10 04:57:38;;;;;;;13.38;12.88;;;15.50;99.90;;;;;;5051555;28;20211;-67
2023/08/10 05:00:10;;;;;;;13.07;12.67;;;15.50;99.90;;;;;;5051382;28;20235;-65
2023/08/10 05:02:38;;;;;;;13.73;13.23;;;15.50;99.90;;;;;;5055157;28;20211;-66
2023/08/10 05:05:06;;;;;;;13.40;12.93;;;15.50;99.90;;;;;;5060251;28;20238;-65
2023/08/10 05:07:33;;;;;;;14.17;13.67;;;15.60;99.90;;;;;;5067382;28;20200;-67
2023/08/10 05:10:04;;;;;;;14.30;13.80;;;15.60;99.90;;;;;;5051292;28;20253;-66
2023/08/10 05:12:31;;;;;;;13.52;13.02;;;15.60;99.90;;;;;;5053123;28;20211;-66
2023/08/10 05:14:58;;;;;;;14.53;14.03;;;15.60;99.90;;;;;;5052739;28;20684;-65
2023/08/10 05:17:24;;;;;;;14.17;13.67;;;15.60;99.90;;;;;;5052244;28;20214;-66
2023/08/10 05:19:51;;;;;;;14.37;13.87;;;15.70;99.90;;;;;;5048841;28;20262;-65
2023/08/10 05:22:19;;;;;;;15.60;15.07;;;15.80;99.90;;;;;;5052110;28;20546;-66
2023/08/10 05:24:46;;;;;;;15.67;15.17;;;15.90;99.90;;;;;;5050531;28;20234;-65
2023/08/10 05:27:14;;;;;;;15.27;14.77;;;16.10;99.90;;;;;;5049849;28;20206;-68
2023/08/10 05:29:41;;;;;;;17.63;16.93;;;16.20;99.90;;;;;;5050229;28;20230;-67
2023/08/10 05:32:08;;;;;;;17.13;16.53;;;16.30;99.90;;;;;;5049980;28;20227;-63
2023/08/10 05:34:35;;;;;;;20.20;19.50;;;16.50;99.90;;;;;;5049529;28;20277;-67
2023/08/10 05:37:02;;;;;;;20.03;19.33;;;16.60;99.90;;;;;;5056763;28;20315;-66
2023/08/10 05:39:29;;;;;;;19.60;18.90;;;16.60;99.90;;;;;;5051516;28;20230;-67
2023/08/10 05:41:55;;;;;;;17.53;16.90;;;16.80;99.90;;;;;;5049214;28;20203;-66
2023/08/10 05:44:24;;;;;;;18.70;18.10;;;16.90;99.90;;;;;;5049452;28;20196;-66
2023/08/10 05:46:51;;;;;;;19.37;18.67;;;17.00;99.90;;;;;;5042660;28;20213;-65
2023/08/10 05:49:18;;;;;;;19.90;19.20;;;17.10;99.90;;;;;;5045864;28;20223;-65
2023/08/10 05:51:45;;;;;;;21.30;20.50;;;17.20;99.90;;;;;;5049348;28;20204;-64
2023/08/10 05:54:11;;;;;;;21.45;20.67;;;17.30;99.90;;;;;;5045444;28;20228;-67
2023/08/10 05:56:39;;;;;;;21.93;21.23;;;17.50;99.90;;;;;;5049356;28;20404;-64
2023/08/10 05:59:05;;;;;;;20.23;19.52;;;17.70;99.90;;;;;;5048511;28;20224;-65
2023/08/10 06:01:34;;;;;;;22.20;21.40;;;17.90;99.90;;;;;;5049446;28;20211;-64
2023/08/10 06:04:02;;;;;;;22.33;21.53;;;17.90;99.90;;;;;;5047915;28;20200;-66
2023/08/10 06:06:30;;;;;;;25.23;24.33;;;18.00;99.90;;;;;;5047978;28;20227;-67
2023/08/10 06:08:56;;;;;;;23.60;22.80;;;18.20;99.90;;;;;;5048567;28;20238;-65
2023/08/10 06:11:23;;;;;;;24.50;23.70;;;18.30;99.90;;;;;;5048808;28;20695;-66
2023/08/10 06:13:50;;;;;;;24.52;23.63;;;18.40;99.90;;;;;;5049632;28;20214;-65
2023/08/10 06:16:17;;;;;;;25.30;24.40;;;18.50;99.90;;;;;;5056993;28;20218;-67
2023/08/10 06:18:45;;;;;;;26.48;25.58;;;18.60;99.90;;;;;;5056626;28;20212;-67
2023/08/10 06:21:13;;;;;;;26.63;25.73;;;18.80;99.90;;;;;;5049399;28;20218;-65
2023/08/10 06:23:40;;;;;;;26.88;25.88;;;18.90;99.90;;;;;;5052375;28;20658;-66
2023/08/10 06:26:07;;;;;;;26.17;25.27;;;19.00;99.90;;;;;;5052593;28;20207;-65
2023/08/10 06:28:34;;;;;;;27.08;26.17;;;19.10;99.90;;;;;;5051494;28;20204;-65
2023/08/10 06:31:01;;;;;;;27.33;26.33;;;19.20;99.90;;;;;;5049596;28;20231;-67
2023/08/10 06:33:28;;;;;;;27.73;26.80;;;19.30;99.90;;;;;;5049758;28;20208;-65
2023/08/10 06:35:56;;;;;;;26.20;25.30;;;19.40;99.90;;;;;;5049403;28;20220;-67
2023/08/10 06:38:23;;;;;;;25.65;24.75;;;19.50;99.90;;;;;;5057562;28;20325;-67
2023/08/10 06:40:49;;;;;;;25.47;24.57;;;19.60;99.90;;;;;;5053972;28;20224;-65
2023/08/10 06:43:16;;;;;;;25.63;24.73;;;19.70;99.90;;;;;;5050426;28;20235;-66
2023/08/10 06:45:43;;;;;;;25.08;24.17;;;19.80;99.90;;;;;;5050254;28;20670;-65
2023/08/10 06:48:10;;;;;;;25.50;24.50;;;19.90;99.90;;;;;;5050604;28;20208;-65
2023/08/10 06:50:37;;;;;;;25.75;24.85;;;20.00;99.90;;;;;;5052419;28;20232;-66
2023/08/10 06:53:07;;;;;;;25.15;24.25;;;20.10;99.90;;;;;;5052881;28;20207;-64
2023/08/10 06:55:34;;;;;;;25.38;24.50;;;20.10;99.90;;;;;;5052076;28;20271;-65
2023/08/10 06:58:02;;;;;;;26.73;25.80;;;20.10;99.90;;;;;;5051023;28;20204;-67
2023/08/10 07:00:29;;;;;;;26.30;25.40;;;20.20;99.90;;;;;;5050066;28;20239;-66
2023/08/10 07:02:56;;;;;;;25.17;24.30;;;20.20;99.90;;;;;;5050264;28;20214;-65
2023/08/10 07:05:25;;;;;;;24.80;23.92;;;20.20;99.90;;;;;;5052804;28;20211;-66
2023/08/10 07:07:52;;;;;;;24.33;23.48;;;20.40;99.90;;;;;;5061014;28;20227;-65
2023/08/10 07:10:20;;;;;;;22.98;22.17;;;20.40;99.90;;;;;;5064878;28;20781;-65
2023/08/10 07:12:47;;;;;;;24.73;23.88;;;20.30;99.90;;;;;;5072486;28;20267;-66
2023/08/10 07:15:14;;;;;;;24.75;23.88;;;20.20;99.90;;;;;;5065709;28;20215;-66
2023/08/10 07:17:41;;;;;;;23.58;22.77;;;20.30;99.90;;;;;;5057316;28;20298;-65
2023/08/10 07:20:09;;;;;;;20.98;20.27;;;20.50;99.90;;;;;;5057844;28;20262;-65
2023/08/10 07:22:36;;;;;;;19.48;18.77;;;20.60;99.90;;;;;;5052764;28;20208;-64
2023/08/10 07:25:03;;;;;;;21.63;20.90;;;20.60;99.90;;;;;;5053426;28;20214;-66
2023/08/10 07:27:32;;;;;;;21.88;21.15;;;20.60;99.90;;;;;;5053053;28;20208;-67
2023/08/10 07:29:59;;;;;;;20.67;19.98;;;20.80;99.90;;;;;;5051713;28;20315;-66
2023/08/10 07:32:26;;;;;;;19.23;18.58;;;21.00;99.90;;;;;;5052927;28;20236;-65
2023/08/10 07:34:53;;;;;;;20.70;20.00;;;21.00;99.90;;;;;;5052135;28;20227;-64
2023/08/10 07:37:20;;;;;;;20.25;19.55;;;21.10;99.90;;;;;;5053022;28;20208;-67
2023/08/10 07:39:47;;;;;;;18.42;17.83;;;21.20;99.90;;;;;;5052843;28;20724;-66
2023/08/10 07:42:14;;;;;;;18.02;17.42;;;21.20;99.90;;;;;;5055068;28;20211;-66
2023/08/10 07:44:43;;;;;;;16.60;16.00;;;21.20;99.90;;;;;;5053463;28;20206;-66
2023/08/10 07:47:10;;;;;;;17.13;16.52;;;21.20;99.90;;;;;;5056444;28;20208;-64
2023/08/10 07:49:37;;;;;;;16.53;15.97;;;21.30;99.90;;;;;;5054217;28;20236;-66
2023/08/10 07:52:04;;;;;;;16.08;15.45;;;21.30;99.90;;;;;;5052775;28;20210;-67
2023/08/10 07:54:30;;;;;;;16.52;15.95;;;21.50;99.90;;;;;;5051762;28;20219;-65
2023/08/10 07:56:57;;;;;;;19.23;18.55;;;21.60;99.90;;;;;;5051579;28;20214;-64
2023/08/10 07:59:24;;;;;;;19.25;18.60;;;21.80;99.90;;;;;;5050958;28;20605;-65
2023/08/10 08:01:52;;;;;;;18.15;17.55;;;21.90;99.90;;;;;;5052009;28;20200;-66
2023/08/10 08:04:19;;;;;;;18.60;18.00;;;21.90;99.90;;;;;;5051581;28;20294;-66
2023/08/10 08:06:46;;;;;;;20.33;19.63;;;22.00;99.90;;;;;;5052354;28;20308;-64
2023/08/10 08:09:13;;;;;;;20.63;19.93;;;22.20;99.90;;;;;;5050958;28;20220;-64
2023/08/10 08:11:41;;;;;;;21.15;20.35;;;22.30;99.90;;;;;;5051691;28;20214;-66
2023/08/10 08:14:08;;;;;;;18.85;18.15;;;22.40;99.90;;;;;;5051537;28;20215;-65
2023/08/10 08:16:35;;;;;;;25.70;24.80;;;22.60;99.90;;;;;;5051763;28;20757;-65
2023/08/10 08:21:35;;;;;;;39.30;37.85;;;22.50;99.90;;;;;;5055906;28;20231;-65
2023/08/10 08:24:03;;;;;;;23.10;22.30;;;22.70;99.90;;;;;;5057702;28;20196;-66
2023/08/10 08:26:32;;;;;;;21.35;20.65;;;22.70;99.90;;;;;;5057445;28;20227;-66
2023/08/10 08:28:59;;;;;;;18.83;18.17;;;22.70;99.90;;;;;;5057082;28;20212;-65
2023/08/10 08:31:26;;;;;;;30.90;29.80;;;22.80;99.90;;;;;;5059243;28;20236;-66
2023/08/10 08:33:53;;;;;;;20.52;19.83;;;23.00;99.90;;;;;;5055567;28;20577;-66
2023/08/10 08:36:20;;;;;;;22.58;21.77;;;23.00;99.90;;;;;;5052187;28;20220;-66
2023/08/10 08:38:48;;;;;;;23.30;22.50;;;23.20;99.90;;;;;;5052705;28;20207;-65
2023/08/10 08:41:17;;;;;;;21.30;20.58;;;23.30;99.90;;;;;;5052387;28;20232;-66
2023/08/10 08:43:47;;;;;;;21.83;21.08;;;23.40;99.90;;;;;;5055525;28;20207;-65
2023/08/10 08:46:14;;;;;;;21.67;20.90;;;23.50;99.90;;;;;;5052590;28;20740;-66
2023/08/10 08:48:42;;;;;;;18.83;18.13;;;23.60;99.90;;;;;;5051539;28;20204;-65
2023/08/10 08:51:09;;;;;;;20.83;20.13;;;23.60;99.90;;;;;;5051646;28;20234;-66
2023/08/10 08:53:37;;;;;;;20.83;20.03;;;23.80;99.90;;;;;;5053746;28;20214;-66
2023/08/10 08:56:07;;;;;;;21.45;20.67;;;24.00;99.90;;;;;;5053671;28;20677;-65
2023/08/10 08:58:34;;;;;;;18.85;18.25;;;24.00;99.90;;;;;;5052170;28;20724;-66
2023/08/10 09:01:01;;;;;;;24.25;23.42;;;24.00;99.90;;;;;;5051245;28;20585;-65
2023/08/10 09:03:29;;;;;;;21.90;21.13;;;24.00;99.90;;;;;;5051647;28;20215;-64
2023/08/10 09:05:56;;;;;;;23.90;23.10;;;24.00;99.90;;;;;;5052320;28;20195;-65
2023/08/10 09:08:24;;;;;;;21.50;20.70;;;24.00;99.90;;;;;;5051764;28;20208;-66
2023/08/10 09:10:50;;;;;;;20.30;19.60;;;24.20;99.90;;;;;;5051014;28;20224;-65
2023/08/10 09:13:21;;;;;;;16.45;15.90;;;24.20;99.90;;;;;;5051601;28;20210;-64
2023/08/10 09:16:03;;;;;;;20.05;19.38;;;24.50;99.90;;;;;;5051635;28;20593;-64
2023/08/10 09:18:32;;;;;;;23.05;22.25;;;24.60;99.90;;;;;;5051363;28;20208;-67
2023/08/10 09:21:08;;;;;;;15.23;14.73;;;24.60;99.90;;;;;;5050603;28;20232;-67
2023/08/10 09:23:36;;;;;;;13.55;13.05;;;24.50;99.90;;;;;;5051171;28;20219;-65
2023/08/10 09:26:08;;;;;;;13.73;13.23;;;24.50;99.90;;;;;;5050496;28;20208;-65
2023/08/10 09:28:38;;;;;;;12.40;12.00;;;24.80;99.90;;;;;;5050584;28;20300;-65
2023/08/10 09:31:07;;;;;;;12.55;12.15;;;24.90;99.90;;;;;;5048874;28;20234;-66
2023/08/10 09:33:35;;;;;;;18.73;18.02;;;25.00;99.90;;;;;;5050309;28;20223;-64
2023/08/10 09:36:03;;;;;;;11.23;10.73;;;24.90;99.90;;;;;;5050286;28;20242;-66
2023/08/10 09:38:30;;;;;;;11.32;10.93;;;24.90;99.90;;;;;;5050403;28;20208;-67
2023/08/10 09:41:11;;;;;;;10.63;10.23;;;25.00;99.90;;;;;;5049203;28;20314;-64
2023/08/10 09:43:39;;;;;;;13.35;12.90;;;25.20;99.90;;;;;;5049916;28;20213;-65
2023/08/10 09:46:07;;;;;;;12.80;12.40;;;25.40;99.90;;;;;;5050179;28;20246;-65
2023/08/10 09:48:35;;;;;;;14.10;13.60;;;25.40;99.90;;;;;;5050579;28;20312;-66
2023/08/10 09:51:04;;;;;;;13.73;13.23;;;25.50;99.90;;;;;;5049867;28;20235;-66
2023/08/10 09:53:31;;;;;;;12.40;12.00;;;25.50;99.90;;;;;;5049967;28;20235;-65
2023/08/10 09:55:58;;;;;;;14.90;14.30;;;25.60;99.90;;;;;;5051384;28;20598;-66
2023/08/10 09:58:25;;;;;;;12.25;11.85;;;25.60;99.90;;;;;;5050877;28;20509;-67
2023/08/10 10:00:54;;;;;;;13.65;13.15;;;25.70;99.90;;;;;;5049428;28;20227;-66
2023/08/10 10:03:22;;;;;;;11.95;11.55;;;25.70;99.90;;;;;;5050223;28;20204;-66
2023/08/10 10:05:51;;;;;;;10.55;10.15;;;25.80;99.90;;;;;;5050255;28;20250;-65
2023/08/10 10:08:18;;;;;;;12.10;11.70;;;25.70;99.90;;;;;;5050411;28;20206;-65
2023/08/10 10:10:46;;;;;;;12.32;11.93;;;25.80;99.90;;;;;;5048985;28;20318;-65
2023/08/10 10:13:15;;;;;;;10.88;10.48;;;25.80;99.90;;;;;;5049798;28;20208;-65
2023/08/10 10:15:43;;;;;;;10.55;10.15;;;25.90;99.90;;;;;;5049273;28;20227;-66
2023/08/10 10:18:12;;;;;;;11.25;10.65;;;26.00;99.90;;;;;;5049558;28;20207;-65
2023/08/10 10:20:41;;;;;;;11.25;10.85;;;26.10;99.90;;;;;;5048787;28;20240;-65
2023/08/10 10:23:14;;;;;;;11.07;10.60;;;25.90;99.90;;;;;;5049562;28;20227;-65
2023/08/10 10:25:42;;;;;;;12.05;11.65;;;26.10;99.90;;;;;;5049735;28;20200;-65
2023/08/10 10:28:16;;;;;;;13.02;12.57;;;26.40;99.90;;;;;;5050373;28;20210;-65
2023/08/10 10:30:55;;;;;;;12.38;11.98;;;26.50;99.90;;;;;;5048718;28;20702;-65
2023/08/10 10:33:23;;;;;;;12.82;12.40;;;26.50;99.90;;;;;;5049609;28;20211;-65
2023/08/10 10:36:06;;;;;;;11.95;11.55;;;26.30;99.90;;;;;;5049602;28;20328;-65
2023/08/10 10:38:33;;;;;;;11.57;11.18;;;26.20;99.90;;;;;;5049721;28;20212;-66
2023/08/10 10:41:09;;;;;;;12.68;12.27;;;26.40;99.90;;;;;;5049659;28;20733;-64
2023/08/10 10:43:36;;;;;;;12.13;11.73;;;26.40;99.90;;;;;;5053334;28;20207;-65
2023/08/10 10:46:03;;;;;;;12.65;12.25;;;26.60;99.90;;;;;;5053536;28;20202;-65
2023/08/10 10:48:35;;;;;;;13.30;12.80;;;26.80;99.90;;;;;;5053616;28;20200;-65
2023/08/10 10:51:04;;;;;;;19.42;18.73;;;26.80;99.90;;;;;;5052745;28;20220;-66
2023/08/10 10:53:32;;;;;;;12.98;12.57;;;27.00;99.90;;;;;;5053598;28;20208;-64
2023/08/10 10:56:00;;;;;;;12.05;11.65;;;27.00;99.90;;;;;;5053054;28;20227;-67
2023/08/10 10:58:29;;;;;;;12.75;12.25;;;27.00;99.90;;;;;;5052179;28;20214;-65
2023/08/10 11:00:57;;;;;;;14.25;13.65;;;27.10;99.90;;;;;;5053666;28;20227;-67
2023/08/10 11:03:29;;;;;;;12.10;11.60;;;26.90;99.90;;;;;;5054281;28;20214;-66
2023/08/10 11:05:57;;;;;;;12.20;11.80;;;26.90;99.90;;;;;;5052996;28;20200;-66
2023/08/10 11:08:24;;;;;;;12.05;11.65;;;27.10;99.90;;;;;;5052499;28;20704;-66
2023/08/10 11:10:52;;;;;;;13.90;13.30;;;27.10;99.90;;;;;;5052261;28;20749;-65
2023/08/10 11:13:20;;;;;;;12.23;11.82;;;27.00;99.90;;;;;;5052962;28;20311;-67
2023/08/10 11:15:49;;;;;;;11.82;11.43;;;27.00;99.90;;;;;;5053135;28;20254;-66
2023/08/10 11:18:16;;;;;;;12.05;11.65;;;27.20;99.90;;;;;;5053500;28;20199;-66
2023/08/10 11:20:44;;;;;;;12.68;12.27;;;27.30;99.90;;;;;;5051910;28;20285;-66
2023/08/10 11:23:13;;;;;;;12.35;11.95;;;27.40;99.90;;;;;;5052800;28;20204;-66
2023/08/10 11:25:49;;;;;;;12.63;12.13;;;27.50;99.90;;;;;;5052521;28;20211;-63
2023/08/10 11:28:18;;;;;;;11.95;11.55;;;27.60;99.90;;;;;;5052843;28;20249;-66
2023/08/10 11:30:45;;;;;;;11.68;11.27;;;27.70;99.90;;;;;;5051695;28;20224;-66
2023/08/10 11:33:12;;;;;;;12.23;11.82;;;27.60;99.90;;;;;;5053076;28;20204;-66
2023/08/10 11:35:43;;;;;;;11.90;11.50;;;27.70;99.90;;;;;;5052825;28;20235;-66
2023/08/10 11:38:10;;;;;;;11.45;11.05;;;27.70;99.90;;;;;;5051352;28;20208;-64
2023/08/10 11:40:38;;;;;;;12.13;11.73;;;27.70;99.90;;;;;;5051158;28;20226;-67
2023/08/10 11:43:08;;;;;;;11.98;11.57;;;27.80;99.90;;;;;;5052147;28;20587;-63
2023/08/10 11:45:36;;;;;;;20.23;19.40;;;27.90;99.90;;;;;;5052093;28;20287;-65
2023/08/10 11:48:07;;;;;;;11.30;10.90;;;27.90;99.90;;;;;;5051886;28;20302;-66
2023/08/10 11:50:34;;;;;;;12.50;12.00;;;27.70;99.90;;;;;;5051128;28;20239;-65
2023/08/10 11:53:12;;;;;;;14.02;13.52;;;27.70;99.90;;;;;;5051119;28;20294;-65
2023/08/10 11:55:44;;;;;;;11.80;11.40;;;27.70;99.90;;;;;;5051871;28;20589;-65
2023/08/10 11:58:13;;;;;;;12.00;11.60;;;27.60;99.90;;;;;;5051913;28;20207;-64
2023/08/10 12:00:41;;;;;;;12.10;11.70;;;27.70;99.90;;;;;;5050644;28;20253;-65
2023/08/10 12:03:11;;;;;;;12.70;12.20;;;28.00;99.90;;;;;;5051373;28;20214;-66
2023/08/10 12:05:44;;;;;;;11.52;11.13;;;28.10;99.90;;;;;;5051642;28;20262;-65
2023/08/10 12:08:13;;;;;;;11.18;10.77;;;28.00;99.90;;;;;;5052720;28;20208;-65
2023/08/10 12:10:41;;;;;;;21.50;20.63;;;27.90;99.90;;;;;;5051409;28;20290;-65
2023/08/10 12:13:11;;;;;;;11.45;11.05;;;27.60;99.90;;;;;;5054330;28;20204;-65
2023/08/10 12:15:46;;;;;;;12.75;12.25;;;27.40;99.90;;;;;;5055377;28;20208;-65
2023/08/10 12:18:14;;;;;;;12.98;12.52;;;27.60;99.90;;;;;;5054650;28;20214;-64
2023/08/10 12:20:41;;;;;;;27.08;25.95;;;27.60;99.90;;;;;;5050988;28;20812;-66
2023/08/10 12:23:09;;;;;;;12.55;12.15;;;27.70;99.90;;;;;;5051563;28;20231;-65
2023/08/10 12:25:35;;;;;;;16.02;15.43;;;27.50;99.90;;;;;;5051403;28;20204;-66
2023/08/10 12:28:02;;;;;;;11.38;10.90;;;27.70;99.90;;;;;;5051076;28;20204;-67
2023/08/10 12:30:31;;;;;;;11.30;10.90;;;27.90;99.90;;;;;;5049764;28;20227;-67
2023/08/10 12:32:58;;;;;;;11.35;10.95;;;28.10;99.90;;;;;;5051204;28;20210;-66
2023/08/10 12:35:25;;;;;;;10.93;10.52;;;28.20;99.90;;;;;;5050960;28;20204;-66